• Join FlightAware (Why Join?)
  • Login
  • US Flag 
12:27AM EST


 

Airport Tracker/Info


-or-


 

Live Flight TrackerFlight Track Log ✈ N556VP ✈ 26-Apr-2013 ✈ KMAF - KBTR

Flight Track Log - Related Links

Times and Time Zones

All times are in EDT time to prevent confusion due to time zone crossing. See the N556VP flight status page for this flight to view local times or setup timezone preferences in your user account.

Time Position Orientation Groundspeed Altitude Reporting Facility
EDT Latitude Longitude Course Direction KTS MPH feet Rate Location/Type
01:42PM 32.0906 -102.3664 18° North 230 265 10,700  Level Fort Worth Center
01:43PM 32.0922 -102.2733 89° East 197 227 12,700 1,620 Climbing Fort Worth Center
01:44PM 32.0758 -102.1522 99° East 293 337 14,000 1,620 Climbing Fort Worth Center
01:45PM 31.8697 -101.3593 95° East  Level FlightAware Approximate
01:45PM 32.0639 -102.0242 96° East 322 371 16,000  Level Fort Worth Center
01:46PM 31.8570 -101.2193 97° East  Level FlightAware Approximate
01:46PM 32.0519 -101.8961 96° East 369 425 17,800  Level Fort Worth Center
01:47PM 32.0358 -101.7606 98° East 396 456 19,800 1,980 Climbing Fort Worth Center
01:48PM 32.0233 -101.6350 97° East 396 456 21,800 1,980 Climbing Fort Worth Center
01:49PM 32.0111 -101.4997 96° East 401 461 23,800 1,980 Climbing Fort Worth Center
01:50PM 31.9944 -101.3644 98° East 411 473 25,800 1,560 Climbing Fort Worth Center
01:51PM 31.9819 -101.2292 96° East 411 473 27,000 600 Climbing Fort Worth Center
01:52PM 31.9697 -101.0842 96° East 419 482 27,000  Level Fort Worth Center
01:53PM 31.9586 -100.9639 96° East 439 505 27,000  Level Fort Worth Center
01:54PM 31.9361 -100.7914 99° East 458 527 27,000  Level Fort Worth Center
01:55PM 31.9175 -100.6219 97° East 476 548 27,000  Level Fort Worth Center
01:56PM 31.9025 -100.4747 97° East 481 554 27,000  Level Fort Worth Center
01:57PM 31.8833 -100.3197 98° East 481 554 27,000  Level Fort Worth Center
01:58PM 31.8678 -100.1653 97° East 481 554 27,000  Level Fort Worth Center
01:59PM 31.8483 -100.0106 98° East 481 554 27,000  Level Fort Worth Center
02:00PM 31.8389 -99.8539 94° East 481 554 27,000  Level Fort Worth Center
02:01PM 31.8439 -99.7000 88° East 481 554 27,000  Level Fort Worth Center
02:02PM 31.8278 -99.5456 97° East 481 554 27,000  Level Fort Worth Center
02:03PM 31.8097 -99.3692 97° East 481 554 27,000  Level Fort Worth Center
02:04PM 31.7911 -99.2172 98° East 481 554 27,000  Level Fort Worth Center
02:05PM 31.7722 -99.0653 98° East 481 554 27,000  Level Fort Worth Center
02:06PM 31.7533 -98.9086 98° East 481 554 27,000  Level Fort Worth Center
02:07PM 31.7300 -98.7544 100° East 476 548 27,000  Level Fort Worth Center
02:08PM 31.7108 -98.6050 99° East 470 541 27,000  Level Fort Worth Center
02:09PM 31.6850 -98.4583 102° East 470 541 27,000  Level Fort Worth Center
02:10PM 31.6631 -98.2994 99° East 470 541 27,000  Level Fort Worth Center
02:11PM 31.6494 -98.1431 96° East 470 541 27,000  Level Fort Worth Center
02:12PM 31.6294 -97.9942 99° East 470 541 27,000  Level Fort Worth Center
02:13PM 31.6156 -97.8403 96° East 465 535 27,000  Level Fort Worth Center
02:14PM 31.5950 -97.6889 99° East 470 541 27,000  Level Fort Worth Center
02:15PM 31.5722 -97.5353 100° East 470 541 27,000  Level Fort Worth Center
02:16PM 31.5556 -97.3986 98° East 470 541 27,000  Level Fort Worth Center
02:17PM 31.5350 -97.2497 99° East 472 543 27,000  Level Houston Center
02:18PM 31.5147 -97.0956 99° East 471 542 27,000  Level Houston Center
02:19PM 31.4956 -96.9425 98° East 469 540 27,000  Level Houston Center
02:20PM 31.4747 -96.7908 99° East 466 536 27,000  Level Houston Center
02:21PM 31.4542 -96.6408 99° East 461 531 27,000  Level Houston Center
02:22PM 31.4328 -96.4914 99° East 458 527 27,000  Level Houston Center
02:23PM 31.4106 -96.3422 100° East 460 529 27,000  Level Houston Center
02:24PM 31.3900 -96.1917 99° East 463 533 27,000 360 Level Houston Center
02:25PM 31.3675 -96.0331 99° East 459 528 27,800 720 Climbing Houston Center
02:26PM 31.3478 -95.8864 99° East 457 526 28,500 540 Climbing Houston Center
02:27PM 31.3217 -95.7375 102° East 465 535 29,000 240 Climbing Houston Center
02:28PM 31.2900 -95.5558 101° East 475 547 29,000  Level Houston Center
02:29PM 31.2656 -95.4022 101° East 478 550 29,000  Level Houston Center
02:30PM 31.2397 -95.2489 101° East 481 554 29,000  Level Houston Center
02:31PM 31.2144 -95.0969 101° East 477 549 29,000  Level Houston Center
02:32PM 31.1903 -94.9450 100° East 480 552 29,000  Level Houston Center
02:33PM 31.1656 -94.7789 100° East 486 559 29,000  Level Houston Center
02:34PM 31.1375 -94.6153 101° East 485 558 29,000  Level Houston Center
02:35PM 31.1133 -94.4642 101° East 478 550 29,000  Level Houston Center
02:36PM 31.0889 -94.3117 101° East 479 551 29,000  Level Houston Center
02:37PM 31.0603 -94.1281 100° East 480 552 29,000  Level Houston Center
02:38PM 31.0372 -93.9753 100° East 480 552 29,000  Level Houston Center
02:39PM 31.0161 -93.8303 100° East 479 551 29,000  Level Houston Center
02:41PM 30.9928 -93.6767 100° East 480 552 29,000  Level Houston Center
02:42PM 30.9703 -93.5233 100° East 480 552 29,000 -120 Level Houston Center
02:43PM 30.9428 -93.3389 100° East 480 552 28,800 -480 Descending Houston Center
02:44PM 30.9192 -93.1833 100° East 484 557 28,000 -720 Descending Houston Center
02:45PM 30.8953 -93.0275 100° East 485 558 27,400 -960 Descending Houston Center
02:46PM 30.8708 -92.8664 100° East 472 543 26,100 -1,380 Descending Houston Center
02:47PM 30.8519 -92.7206 99° East 464 534 24,600 -1,020 Descending Houston Center
02:48PM 30.8328 -92.5819 99° East 445 512 24,000 -300 Descending Houston Center
02:49PM 30.8114 -92.4519 101° East 422 486 24,000 -540 Level Houston Center
02:50PM 30.7839 -92.2944 101° East 417 480 23,000 -1,080 Descending Houston Center
02:51PM 30.7608 -92.1611 101° East 423 487 21,800 -1,500 Descending Houston Center
02:52PM 30.7411 -92.0350 100° East 407 468 19,900 -1,920 Descending Houston Center
02:53PM 30.7197 -91.9125 101° East 393 452 17,800 -1,920 Descending Houston Center
02:54PM 30.7006 -91.7908 100° East 386 444 16,000 -1,920 Descending Houston Center
02:55PM 30.6786 -91.6758 102° East 371 427 13,900 -2,520 Descending Houston Center
02:56PM 30.6611 -91.5422 99° East 353 406 10,800 -2,940 Descending Houston Center
02:57PM 30.6669 -91.4347 86° East 339 390 7,900 -2,760 Descending Houston Center
02:58PM 30.6731 -91.3428 86° East 293 337 5,200 -1,800 Descending Houston Center
02:59PM 30.6747 -91.2592 89° East 284 327 4,200 -1,020 Descending Houston Center
03:01PM 30.5508 -91.1637 101° East  Level Estimated
03:08PM 30.5329 -91.1499 101° East  Level Estimated
03:09PM 30.5329 -91.1499 101° East  Level Estimated